createdAt,value
2017-10-21T00:02:18.359Z,76.10
2017-10-21T00:04:45.937Z,76.20
2017-10-21T00:07:13.585Z,76.40
2017-10-21T00:09:41.156Z,76.40
2017-10-21T00:12:08.708Z,76.40
2017-10-21T00:14:36.201Z,76.50
2017-10-21T00:17:03.767Z,76.50
2017-10-21T00:19:31.204Z,76.70
2017-10-21T00:21:58.698Z,76.60
2017-10-21T00:24:26.238Z,76.50
2017-10-21T00:26:53.679Z,76.40
2017-10-21T00:29:21.239Z,76.00
2017-10-21T00:31:48.722Z,76.00
2017-10-21T00:34:16.992Z,76.00
2017-10-21T00:36:44.467Z,76.00
2017-10-21T00:39:11.916Z,76.00
2017-10-21T00:41:39.361Z,76.00
2017-10-21T00:44:06.956Z,75.80
2017-10-21T00:46:34.420Z,75.60
2017-10-21T00:49:01.902Z,75.60
2017-10-21T00:51:29.368Z,75.70
2017-10-21T00:53:57.304Z,76.00
2017-10-21T00:56:24.757Z,76.00
2017-10-21T00:58:52.256Z,76.20
2017-10-21T01:01:19.911Z,76.20
2017-10-21T01:03:47.466Z,76.40
2017-10-21T01:19:21.885Z,75.80
2017-10-21T01:21:49.337Z,75.80
2017-10-21T01:24:16.807Z,75.80
2017-10-21T01:26:44.269Z,75.80
2017-10-21T01:29:11.822Z,76.00
2017-10-21T01:31:39.367Z,76.10
2017-10-21T01:34:06.837Z,76.20
2017-10-21T01:36:34.269Z,76.50
2017-10-21T01:39:03.271Z,76.50
2017-10-21T01:41:30.708Z,76.40
2017-10-21T01:43:58.112Z,76.40
2017-10-21T01:46:25.588Z,76.40
2017-10-21T01:48:53.030Z,76.40
2017-10-21T01:51:20.626Z,76.30
2017-10-21T01:53:48.106Z,76.40
2017-10-21T01:56:15.654Z,76.40
2017-10-21T01:58:43.088Z,76.40
2017-10-21T02:01:10.980Z,76.30
2017-10-21T02:03:38.407Z,76.30
2017-10-21T02:06:05.848Z,76.40
2017-10-21T02:08:33.328Z,76.30
2017-10-21T02:11:01.648Z,76.30
2017-10-21T02:13:29.210Z,76.30
2017-10-21T02:15:56.874Z,76.40
2017-10-21T02:18:24.317Z,76.40
2017-10-21T02:20:51.743Z,76.40
2017-10-21T02:23:21.212Z,76.20
2017-10-21T02:25:48.672Z,76.10
2017-10-21T02:28:17.567Z,76.20
2017-10-21T02:30:45.052Z,76.30
2017-10-21T02:33:12.910Z,75.80
2017-10-21T02:35:40.346Z,75.80
2017-10-21T02:38:07.784Z,76.20
2017-10-21T02:40:35.230Z,76.20
2017-10-21T02:43:02.660Z,76.70
2017-10-21T02:45:30.173Z,76.60
2017-10-21T02:47:57.628Z,76.70
2017-10-21T02:50:25.055Z,76.60
2017-10-21T02:52:52.971Z,76.50
2017-10-21T02:55:20.396Z,76.50
2017-10-21T02:57:49.079Z,76.30
2017-10-21T03:00:16.938Z,76.20
2017-10-21T03:02:44.788Z,76.10
2017-10-21T03:05:12.217Z,76.10
2017-10-21T03:07:39.680Z,76.00
2017-10-21T03:10:07.136Z,76.00
2017-10-21T03:12:34.570Z,76.10
2017-10-21T03:15:02.418Z,76.30
2017-10-21T03:17:29.941Z,76.30
2017-10-21T03:19:57.388Z,76.50
2017-10-21T03:22:24.865Z,76.70
2017-10-21T03:24:52.288Z,77.00
2017-10-21T03:27:20.128Z,77.30
2017-10-21T03:29:47.683Z,77.30
2017-10-21T03:32:15.131Z,77.40
2017-10-21T03:34:42.585Z,77.40
2017-10-21T03:37:10.144Z,77.50
2017-10-21T03:39:37.571Z,77.60
2017-10-21T03:42:05.434Z,77.60
2017-10-21T03:44:32.893Z,77.60
2017-10-21T03:47:00.326Z,77.70
2017-10-21T03:49:27.787Z,77.70
2017-10-21T03:51:55.236Z,77.80
2017-10-21T03:54:22.689Z,77.90
2017-10-21T03:56:50.157Z,78.00
2017-10-21T03:59:17.649Z,78.00
2017-10-21T04:01:45.086Z,77.80
2017-10-21T04:04:12.576Z,77.80
2017-10-21T04:06:40.033Z,77.80
2017-10-21T04:09:07.467Z,77.70
2017-10-21T04:11:35.064Z,77.80
2017-10-21T04:14:02.488Z,77.90
2017-10-21T04:16:29.939Z,77.90
2017-10-21T04:18:57.356Z,77.70
2017-10-21T04:21:25.189Z,77.80
2017-10-21T04:23:52.645Z,77.80
2017-10-21T04:26:20.103Z,77.70
2017-10-21T04:28:47.549Z,77.70
2017-10-21T04:31:14.985Z,77.60
2017-10-21T04:33:42.792Z,77.70
2017-10-21T04:36:10.255Z,77.70
2017-10-21T04:38:38.182Z,78.00
2017-10-21T04:41:06.117Z,77.90
2017-10-21T04:43:33.584Z,77.90
2017-10-21T04:46:01.016Z,77.70
2017-10-21T04:48:28.519Z,77.60
2017-10-21T04:50:56.064Z,77.50
2017-10-21T04:53:23.501Z,77.50
2017-10-21T04:55:50.947Z,77.40
2017-10-21T04:58:18.402Z,77.10
2017-10-21T05:00:46.342Z,76.90
2017-10-21T05:03:13.804Z,76.90
2017-10-21T05:05:41.271Z,77.10
2017-10-21T05:08:08.741Z,77.10
2017-10-21T05:10:36.265Z,77.00
2017-10-21T05:13:03.719Z,77.00
2017-10-21T05:15:31.146Z,77.30
2017-10-21T05:17:58.978Z,77.10
2017-10-21T05:20:26.430Z,77.10
2017-10-21T05:22:53.852Z,77.10
2017-10-21T05:25:21.356Z,77.00
2017-10-21T05:27:48.801Z,77.00
2017-10-21T05:30:16.264Z,77.00
2017-10-21T05:32:43.748Z,77.00
2017-10-21T05:35:11.207Z,77.00
2017-10-21T05:37:38.639Z,77.00
2017-10-21T05:40:06.951Z,77.10
2017-10-21T05:42:34.396Z,77.20
2017-10-21T05:45:01.873Z,77.30
2017-10-21T05:47:29.353Z,77.50
2017-10-21T05:49:56.794Z,77.70
2017-10-21T05:52:24.270Z,77.80
2017-10-21T05:54:51.724Z,78.00
2017-10-21T05:57:19.165Z,78.10
2017-10-21T05:59:46.611Z,78.10
2017-10-21T06:02:14.061Z,78.20
2017-10-21T06:04:42.699Z,78.10
2017-10-21T06:07:10.140Z,78.00
2017-10-21T06:09:38.633Z,78.00
2017-10-21T06:12:06.067Z,78.00
2017-10-21T06:14:33.556Z,77.70
2017-10-21T06:17:01.030Z,77.80
2017-10-21T06:19:28.453Z,77.80
2017-10-21T06:21:55.902Z,77.90
2017-10-21T06:24:23.719Z,78.00
2017-10-21T06:26:51.165Z,78.00
2017-10-21T06:29:18.635Z,78.00
2017-10-21T06:31:46.060Z,78.00
2017-10-21T06:34:13.657Z,78.00
2017-10-21T06:36:41.101Z,77.70
2017-10-21T06:39:08.535Z,77.80
2017-10-21T06:41:36.968Z,78.00
2017-10-21T06:44:05.131Z,78.00
2017-10-21T06:46:32.618Z,78.00
2017-10-21T06:49:00.052Z,78.00
2017-10-21T06:51:27.523Z,78.00
2017-10-21T06:53:55.108Z,78.00
2017-10-21T06:56:23.372Z,78.10
2017-10-21T06:58:50.817Z,78.20
2017-10-21T07:01:18.277Z,78.10
2017-10-21T07:03:45.744Z,78.00
2017-10-21T07:06:13.175Z,78.00
2017-10-21T07:08:41.028Z,77.90
2017-10-21T07:11:09.288Z,77.90
2017-10-21T07:13:36.741Z,77.70
2017-10-21T07:16:04.210Z,77.70
2017-10-21T07:18:31.723Z,77.90
2017-10-21T07:20:59.526Z,78.20
2017-10-21T07:23:27.010Z,78.20
2017-10-21T07:25:54.492Z,78.30
2017-10-21T07:28:22.322Z,78.20
2017-10-21T07:30:49.780Z,78.20
2017-10-21T07:33:17.231Z,78.10
2017-10-21T07:35:44.712Z,78.20
2017-10-21T07:38:12.252Z,78.00
2017-10-21T07:40:39.674Z,78.20
2017-10-21T07:43:07.505Z,78.10
2017-10-21T07:45:34.943Z,78.10
2017-10-21T07:48:02.600Z,77.90
2017-10-21T07:50:30.026Z,77.70
2017-10-21T07:52:57.536Z,77.40
2017-10-21T07:55:24.975Z,77.70
2017-10-21T07:57:52.404Z,77.70
2017-10-21T08:00:19.842Z,78.00
2017-10-21T08:02:47.269Z,77.80
2017-10-21T08:05:15.404Z,77.40
2017-10-21T08:07:43.028Z,77.10
2017-10-21T08:10:10.467Z,77.00
2017-10-21T08:12:37.888Z,76.60
2017-10-21T08:15:05.353Z,76.50
2017-10-21T08:17:32.769Z,76.40
2017-10-21T08:20:00.192Z,76.30
2017-10-21T08:22:28.022Z,76.40
2017-10-21T08:24:55.464Z,76.40
2017-10-21T08:27:22.885Z,76.60
2017-10-21T08:29:50.704Z,76.60
2017-10-21T08:32:18.150Z,76.60
2017-10-21T08:34:45.569Z,76.50
2017-10-21T08:37:12.991Z,76.20
2017-10-21T08:39:40.431Z,76.20
2017-10-21T08:42:07.845Z,76.00
2017-10-21T08:44:35.298Z,75.90
2017-10-21T08:47:02.722Z,75.70
2017-10-21T08:49:30.136Z,75.70
2017-10-21T08:51:57.579Z,75.10
2017-10-21T08:54:25.024Z,74.80
2017-10-21T08:56:52.564Z,74.30
2017-10-21T08:59:19.984Z,74.80
2017-10-21T09:01:47.420Z,75.00
2017-10-21T09:04:14.869Z,74.50
2017-10-21T09:06:42.283Z,74.50
2017-10-21T09:09:10.108Z,74.40
2017-10-21T09:11:37.552Z,74.40
2017-10-21T09:14:05.839Z,74.30
2017-10-21T09:16:33.285Z,74.00
2017-10-21T09:19:00.909Z,74.00
2017-10-21T09:21:28.721Z,74.00
2017-10-21T09:23:56.144Z,74.00
2017-10-21T09:26:23.608Z,73.90
2017-10-21T09:28:51.425Z,73.60
2017-10-21T09:31:18.841Z,73.60
2017-10-21T09:33:46.742Z,72.80
2017-10-21T09:36:14.160Z,72.90
2017-10-21T09:38:41.589Z,72.30
2017-10-21T09:41:09.165Z,72.50
2017-10-21T09:43:36.593Z,72.50
2017-10-21T09:46:04.022Z,72.60
2017-10-21T09:48:32.774Z,71.80
2017-10-21T09:51:00.645Z,71.80
2017-10-21T09:53:28.112Z,71.90
2017-10-21T09:55:55.552Z,71.90
2017-10-21T09:58:23.022Z,72.20
2017-10-21T10:00:50.475Z,72.90
2017-10-21T10:03:18.012Z,72.90
2017-10-21T10:05:45.516Z,73.20
2017-10-21T10:08:12.973Z,72.80
2017-10-21T10:10:40.417Z,72.70
2017-10-21T10:13:07.877Z,72.20
2017-10-21T10:15:35.306Z,72.10
2017-10-21T10:18:03.165Z,72.90
2017-10-21T10:20:30.608Z,72.90
2017-10-21T10:22:59.021Z,73.00
2017-10-21T10:25:26.437Z,73.20
2017-10-21T10:27:53.888Z,73.30
2017-10-21T10:30:21.348Z,73.30
2017-10-21T10:32:49.540Z,73.00
2017-10-21T10:35:16.981Z,73.00
2017-10-21T10:37:44.401Z,72.80
2017-10-21T10:40:12.321Z,72.90
2017-10-21T10:42:39.752Z,72.90
2017-10-21T10:45:07.235Z,72.70
2017-10-21T10:47:34.713Z,72.10
2017-10-21T10:50:02.140Z,71.90
2017-10-21T10:52:29.580Z,71.90
2017-10-21T10:54:57.020Z,72.00
2017-10-21T10:57:24.481Z,72.00
2017-10-21T10:59:51.937Z,72.00
2017-10-21T11:02:19.362Z,71.60
2017-10-21T11:04:46.843Z,71.70
2017-10-21T11:07:14.299Z,72.00
2017-10-21T11:09:41.758Z,72.10
2017-10-21T11:12:09.269Z,72.30
2017-10-21T11:14:36.698Z,72.20
2017-10-21T11:17:04.144Z,71.70
2017-10-21T11:19:31.615Z,72.20
2017-10-21T11:21:59.081Z,71.90
2017-10-21T11:24:26.636Z,71.70
2017-10-21T11:26:54.406Z,71.30
2017-10-21T11:29:21.830Z,71.20
2017-10-21T11:31:49.651Z,71.60
2017-10-21T11:34:17.131Z,71.60
2017-10-21T11:36:44.526Z,71.60
2017-10-21T11:39:12.368Z,71.40
2017-10-21T11:41:40.044Z,71.40
2017-10-21T11:44:07.464Z,71.40
2017-10-21T11:46:35.279Z,71.50
2017-10-21T11:49:02.811Z,71.50
2017-10-21T11:51:30.223Z,71.60
2017-10-21T11:53:57.654Z,71.70
2017-10-21T11:56:25.103Z,71.60
2017-10-21T11:58:52.543Z,71.90
2017-10-21T12:01:20.104Z,72.40
2017-10-21T12:03:47.549Z,72.20
2017-10-21T12:06:15.004Z,72.00
2017-10-21T12:08:42.441Z,72.20
2017-10-21T12:11:10.295Z,72.70
2017-10-21T12:13:37.759Z,72.70
2017-10-21T12:16:05.207Z,73.50
2017-10-21T12:18:32.647Z,73.00
2017-10-21T12:21:00.100Z,72.90
2017-10-21T12:23:27.590Z,72.90
2017-10-21T12:25:55.015Z,72.90
2017-10-21T12:28:22.700Z,73.00
2017-10-21T12:30:50.158Z,72.90
2017-10-21T12:33:17.596Z,73.50
2017-10-21T12:35:45.072Z,74.30
2017-10-21T12:38:12.532Z,75.30
2017-10-21T12:40:39.963Z,76.40
2017-10-21T12:43:07.809Z,77.70
2017-10-21T12:45:35.284Z,77.70
2017-10-21T12:48:02.720Z,77.50
2017-10-21T12:50:30.143Z,77.80
2017-10-21T12:52:57.614Z,78.00
2017-10-21T12:55:25.204Z,77.80
2017-10-21T12:57:52.637Z,77.90
2017-10-21T13:00:21.305Z,78.00
2017-10-21T13:02:49.155Z,78.30
2017-10-21T13:05:16.583Z,78.30
2017-10-21T13:07:44.035Z,78.40
2017-10-21T13:10:11.523Z,78.10
2017-10-21T13:12:38.962Z,77.60
2017-10-21T13:15:06.429Z,77.60
2017-10-21T13:17:33.884Z,77.50
2017-10-21T13:20:01.299Z,77.70
2017-10-21T13:22:28.743Z,77.50
2017-10-21T13:24:56.175Z,77.40
2017-10-21T13:27:23.616Z,77.00
2017-10-21T13:29:51.091Z,76.70
2017-10-21T13:32:18.524Z,76.30
2017-10-21T13:34:45.967Z,76.30
2017-10-21T13:37:13.810Z,76.50
2017-10-21T13:39:41.251Z,76.50
2017-10-21T13:42:08.994Z,76.20
2017-10-21T13:44:36.492Z,76.00
2017-10-21T13:47:03.933Z,75.70
2017-10-21T13:49:31.363Z,75.00
2017-10-21T13:52:00.466Z,74.70
2017-10-21T13:54:27.902Z,74.50
2017-10-21T13:56:55.328Z,74.50
2017-10-21T13:59:23.081Z,74.20
2017-10-21T14:01:50.537Z,73.90
2017-10-21T14:04:17.960Z,73.80
2017-10-21T14:06:45.881Z,73.70
2017-10-21T14:09:13.343Z,73.70
2017-10-21T14:11:40.792Z,73.80
2017-10-21T14:14:08.244Z,73.90
2017-10-21T14:16:35.780Z,74.10
2017-10-21T14:19:03.628Z,74.40
2017-10-21T14:21:31.060Z,74.30
2017-10-21T14:23:59.492Z,74.40
2017-10-21T14:26:27.063Z,74.30
2017-10-21T14:28:54.539Z,74.30
2017-10-21T14:31:21.995Z,74.40
2017-10-21T14:33:49.853Z,74.50
2017-10-21T14:36:17.298Z,74.50
2017-10-21T14:38:44.816Z,74.60
2017-10-21T14:41:12.245Z,73.60
2017-10-21T14:43:40.112Z,72.80
2017-10-21T14:46:07.960Z,73.20
2017-10-21T14:48:35.391Z,73.20
2017-10-21T14:51:02.810Z,72.40
2017-10-21T14:53:31.436Z,72.90
2017-10-21T14:55:58.867Z,72.90
2017-10-21T14:58:26.685Z,74.10
2017-10-21T15:00:54.130Z,74.10
2017-10-21T15:03:21.559Z,74.90
2017-10-21T15:05:49.393Z,76.30
2017-10-21T15:08:16.900Z,76.30
2017-10-21T15:10:44.844Z,77.00
2017-10-21T15:13:12.347Z,77.10
2017-10-21T15:15:41.795Z,77.40
2017-10-21T15:18:09.368Z,77.40
2017-10-21T15:20:36.858Z,77.50
2017-10-21T15:23:04.460Z,77.70
2017-10-21T15:25:31.953Z,77.70
2017-10-21T15:27:59.617Z,77.80
2017-10-21T15:30:27.165Z,77.80
2017-10-21T15:32:54.598Z,77.90
2017-10-21T15:35:22.510Z,78.00
2017-10-21T15:37:50.103Z,78.00
2017-10-21T15:40:17.611Z,78.00
2017-10-21T15:42:45.141Z,77.90
2017-10-21T15:45:12.584Z,77.90
2017-10-21T15:47:40.027Z,77.90
2017-10-21T15:50:07.456Z,77.60
2017-10-21T15:52:35.043Z,77.50
2017-10-21T15:55:02.489Z,77.50
2017-10-21T15:57:29.926Z,77.20
2017-10-21T15:59:57.879Z,76.70
2017-10-21T16:02:25.291Z,76.70
2017-10-21T16:04:52.748Z,76.10
2017-10-21T16:07:20.181Z,75.70
2017-10-21T16:09:47.996Z,75.50
2017-10-21T16:12:15.411Z,75.50
2017-10-21T16:14:43.378Z,75.50
2017-10-21T16:17:11.220Z,75.10
2017-10-21T16:19:38.632Z,75.10
2017-10-21T16:22:06.081Z,74.90
2017-10-21T16:24:33.506Z,74.60
2017-10-21T16:27:00.935Z,74.20
2017-10-21T16:29:28.389Z,74.00
2017-10-21T16:31:55.820Z,73.90
2017-10-21T16:34:23.644Z,73.50
2017-10-21T16:36:51.086Z,73.50
2017-10-21T16:39:18.508Z,73.50
2017-10-21T16:41:46.319Z,73.30
2017-10-21T16:44:13.768Z,73.30
2017-10-21T16:46:41.357Z,72.80
2017-10-21T16:49:08.801Z,72.90
2017-10-21T16:51:36.262Z,73.00
2017-10-21T16:54:03.723Z,72.90
2017-10-21T16:56:31.137Z,73.10
2017-10-21T16:58:58.572Z,73.60
2017-10-21T17:01:26.003Z,73.50
2017-10-21T17:03:53.429Z,73.10
2017-10-21T17:06:21.250Z,73.70
2017-10-21T17:08:48.805Z,73.70
2017-10-21T17:11:16.221Z,74.10
2017-10-21T17:13:45.057Z,74.50
2017-10-21T17:16:12.641Z,74.50
2017-10-21T17:18:40.066Z,75.00
2017-10-21T17:21:07.504Z,75.40
2017-10-21T17:23:35.424Z,74.90
2017-10-21T17:26:02.878Z,75.00
2017-10-21T17:28:30.318Z,74.70
2017-10-21T17:30:58.125Z,74.30
2017-10-21T17:33:25.566Z,74.30
2017-10-21T17:35:52.994Z,74.20
2017-10-21T17:38:20.816Z,74.50
2017-10-21T17:40:48.264Z,74.50
2017-10-21T17:43:15.680Z,74.70
2017-10-21T17:45:43.820Z,74.30
2017-10-21T17:48:11.243Z,74.30
2017-10-21T17:50:38.791Z,74.40
2017-10-21T17:53:06.604Z,73.80
2017-10-21T17:55:34.036Z,73.80
2017-10-21T17:58:01.936Z,73.80
2017-10-21T18:00:29.494Z,73.80
2017-10-21T18:02:56.900Z,72.70
2017-10-21T18:05:24.353Z,72.60
2017-10-21T18:07:51.769Z,72.60
2017-10-21T18:10:19.194Z,71.90
2017-10-21T18:12:46.628Z,72.60
2017-10-21T18:15:14.053Z,73.00
2017-10-21T18:17:41.499Z,72.10
2017-10-21T18:20:08.940Z,71.90
2017-10-21T18:22:36.378Z,72.50
2017-10-21T18:25:03.797Z,71.70
2017-10-21T18:27:31.232Z,72.60
2017-10-21T18:29:59.043Z,72.20
2017-10-21T18:32:26.468Z,72.20
2017-10-21T18:34:54.304Z,72.30
2017-10-21T18:37:21.739Z,72.30
2017-10-21T18:39:49.226Z,71.90
2017-10-21T18:42:16.659Z,71.70
2017-10-21T18:44:44.116Z,71.90
2017-10-21T18:47:11.535Z,72.30
2017-10-21T18:49:39.452Z,72.50
2017-10-21T18:52:06.880Z,72.50
2017-10-21T18:54:34.702Z,72.30
2017-10-21T18:57:02.143Z,72.30
2017-10-21T18:59:29.579Z,72.50
2017-10-21T19:01:57.013Z,72.90
2017-10-21T19:04:24.458Z,73.20
2017-10-21T19:06:51.885Z,73.40
2017-10-21T19:09:19.307Z,73.20
2017-10-21T19:11:47.164Z,74.50
2017-10-21T19:14:14.589Z,74.50
2017-10-21T19:16:42.048Z,74.90
2017-10-21T19:22:19.542Z,75.50
2017-10-21T19:24:46.967Z,75.30
2017-10-21T19:27:14.795Z,75.80
2017-10-21T19:29:42.272Z,75.80
2017-10-21T19:32:09.694Z,75.90
2017-10-21T19:34:37.121Z,75.80
2017-10-21T19:37:04.976Z,75.60
2017-10-21T19:39:32.421Z,75.60
2017-10-21T19:41:59.842Z,75.50
2017-10-21T19:44:28.025Z,75.40
2017-10-21T19:46:55.449Z,75.30
2017-10-21T19:49:23.260Z,75.00
2017-10-21T19:51:50.705Z,75.00
2017-10-21T19:54:19.124Z,75.10
2017-10-21T19:56:46.560Z,75.30
2017-10-21T19:59:15.612Z,75.30
2017-10-21T20:01:43.480Z,74.90
2017-10-21T20:04:10.905Z,75.10
2017-10-21T20:06:38.358Z,75.10
2017-10-21T20:09:05.770Z,75.30
2017-10-21T20:11:33.193Z,75.30
2017-10-21T20:14:00.633Z,75.30
2017-10-21T20:16:28.056Z,75.60
2017-10-21T20:18:55.577Z,75.30
2017-10-21T20:21:23.133Z,75.40
2017-10-21T20:23:50.556Z,75.40
2017-10-21T20:26:18.366Z,75.60
2017-10-21T20:28:45.786Z,75.60
2017-10-21T20:31:13.604Z,75.30
2017-10-21T20:33:41.025Z,75.30
2017-10-21T20:36:08.519Z,75.50
2017-10-21T20:38:35.940Z,75.30
2017-10-21T20:41:03.767Z,75.20
2017-10-21T20:43:31.215Z,75.20
2017-10-21T20:45:58.612Z,75.30
2017-10-21T20:48:26.037Z,75.10
2017-10-21T20:50:53.474Z,75.20
2017-10-21T20:53:20.896Z,75.30
2017-10-21T20:55:48.338Z,75.20
2017-10-21T20:58:15.979Z,75.00
2017-10-21T21:00:43.389Z,74.80
2017-10-21T21:03:10.816Z,74.90
2017-10-21T21:05:39.142Z,74.80
2017-10-21T21:08:06.957Z,74.40
2017-10-21T21:10:34.375Z,74.40
2017-10-21T21:13:02.208Z,74.30
2017-10-21T21:15:30.666Z,74.30
2017-10-21T21:17:58.088Z,74.60
2017-10-21T21:20:27.232Z,74.80
2017-10-21T21:22:54.652Z,74.80
2017-10-21T21:25:22.564Z,74.70
2017-10-21T21:27:50.025Z,74.70
2017-10-21T21:30:17.451Z,74.60
2017-10-21T21:32:45.269Z,74.90
2017-10-21T21:35:12.813Z,74.90
2017-10-21T21:37:40.237Z,74.90
2017-10-21T21:40:08.156Z,75.30
2017-10-21T21:42:35.606Z,75.30
2017-10-21T21:45:03.085Z,75.20
2017-10-21T21:47:30.505Z,75.30
2017-10-21T21:49:58.857Z,75.30
2017-10-21T21:52:26.291Z,75.30
2017-10-21T21:54:53.761Z,75.50
2017-10-21T21:57:21.213Z,75.40
2017-10-21T21:59:48.665Z,75.50
2017-10-21T22:02:16.133Z,76.00
2017-10-21T22:04:43.577Z,76.20
2017-10-21T22:07:11.552Z,76.20
2017-10-21T22:09:38.978Z,76.20
2017-10-21T22:12:06.419Z,76.30
2017-10-21T22:14:33.944Z,76.30
2017-10-21T22:17:01.375Z,76.30
2017-10-21T22:19:29.330Z,75.60
2017-10-21T22:21:56.769Z,75.60
2017-10-21T22:27:14.725Z,76.00
2017-10-21T22:29:42.147Z,75.90
2017-10-21T22:32:09.721Z,75.90
2017-10-21T22:34:37.155Z,75.90
2017-10-21T22:37:04.587Z,75.80
2017-10-21T22:39:32.033Z,75.90
2017-10-21T22:41:59.573Z,75.80
2017-10-21T22:44:27.007Z,75.90
2017-10-21T22:46:54.443Z,75.90
2017-10-21T22:49:22.265Z,76.00
2017-10-21T22:51:49.815Z,76.00
2017-10-21T22:54:17.237Z,76.10
2017-10-21T22:56:44.660Z,76.10
2017-10-21T22:59:12.221Z,76.10
2017-10-21T23:01:39.630Z,76.00
2017-10-21T23:04:07.553Z,76.20
2017-10-21T23:06:35.251Z,76.20
2017-10-21T23:09:02.785Z,76.30
2017-10-21T23:11:30.210Z,76.20
2017-10-21T23:14:08.763Z,76.10
2017-10-21T23:16:36.189Z,76.10
2017-10-21T23:19:04.091Z,76.30
2017-10-21T23:21:31.548Z,76.30
2017-10-21T23:23:58.981Z,76.30
2017-10-21T23:26:26.420Z,76.30
2017-10-21T23:28:53.936Z,76.20
2017-10-21T23:31:21.389Z,75.80
2017-10-21T23:33:48.827Z,75.90
2017-10-21T23:36:16.684Z,75.80
2017-10-21T23:38:44.597Z,75.90
2017-10-21T23:41:12.025Z,75.90
2017-10-21T23:43:39.947Z,75.90
2017-10-21T23:46:07.374Z,75.90
2017-10-21T23:48:34.804Z,75.70
2017-10-21T23:51:02.261Z,75.60
2017-10-21T23:53:29.696Z,75.50
2017-10-21T23:55:57.161Z,75.30
2017-10-21T23:58:24.710Z,75.50
